Anatone, WA

11:23 PM PST on March 02, 2015 (GMT -0800)
Montgomery Ridge Road | Change Station
CLOSE
Current Station
Personal Weather Station
Location: Anatone, WA
Elevation: 3300 ft
Nearby Weather Stations

Elev 3300 ft 46.12 °N, 117.01 °W | Updated 3 minutes ago

Mostly Cloudy
Mostly Cloudy
28.1 °F
Feels Like 25 °F
N
3.1
Wind Variable Wind from WNW
Gusts 3.6 mph

Today
High -- | Low -- °F
--% Chance of Precip.
Yesterday
High -- | Low -- °F
Precip. -- in
6:25 AM 5:35 PM
Waxing Gibbous, 95% visible
Pressure 30.04 in
Visibility 10.0 miles
Clouds Few 1100 ft
Few 3600 ft
Overcast 4900 ft
Windchill 25 °F
Dew Point Not available.
Humidity Not available.
Rainfall 0.00 in
Snow Depth Not available.
UV 0 out of 12
Pollen 4.00 out of 12
Air Quality Not available.
Flu Activity Not available.
METAR KLWS 030656Z AUTO 27005KT 10SM FEW011 FEW036 OVC049 02/01 A3000 RMK AO2 RAB0557E27 SLP171 P0000 T00170006

More Conditions Fewer Conditions

Pressure 30.04 in
Visibility 10.0 miles
Clouds Few 1100 ft
Few 3600 ft
Overcast 4900 ft
Windchill 25 °F
Dew Point Not available.
Humidity Not available.
Rainfall 0.00 in
Snow Depth Not available.
UV 0 out of 12
Pollen 4.00 out of 12
Air Quality Not available.
Flu Activity Not available.
METAR KLWS 030656Z AUTO 27005KT 10SM FEW011 FEW036 OVC049 02/01 A3000 RMK AO2 RAB0557E27 SLP171 P0000 T00170006

More Conditions Fewer Conditions

10-Day Weather Forecast

Almanac

Astronomy

Mar. 02, 2015 Rise Set
Actual Time
Civil Twilight
Nautical Twilight
Astronomical Twilight
Moon
Length of Visible Light
Length of Day
Tomorrow will be .
, % of the Moon is Illuminated

Today's Extremes

State Highs State Lows

Community

WunderPhotos

Upload Photos

1,802,073 photos uploaded!

WunderBlogs® & News

Nearby

Air Quality

  Air Quality AQ Index Pollutant
Not available.

Snow Depth

Station Depth Elevation

Earthquake Activity

City Distance Mag. Time & Date
Minimum magnitude displayed is 2.5.

Coastal Water Temperatures

Place Temperature

Nearby Weather Stations